createdAt,value
2022-10-20T00:09:49.457Z,13.06
2022-10-20T00:20:27.301Z,13.10
2022-10-20T00:31:25.592Z,12.91
2022-10-20T00:42:26.255Z,12.91
2022-10-20T00:53:25.670Z,13.10
2022-10-20T01:04:27.543Z,12.94
2022-10-20T01:15:29.908Z,12.88
2022-10-20T01:26:07.235Z,12.74
2022-10-20T01:37:04.598Z,12.64
2022-10-20T01:47:43.164Z,12.59
2022-10-20T01:58:43.644Z,12.82
2022-10-20T02:09:47.399Z,12.60
2022-10-20T02:20:49.853Z,12.60
2022-10-20T02:31:52.928Z,12.48
2022-10-20T02:42:51.900Z,12.46
2022-10-20T02:53:56.152Z,12.42
2022-10-20T03:04:59.204Z,12.44
2022-10-20T03:16:02.786Z,12.67
2022-10-20T03:27:04.705Z,12.59
2022-10-20T03:38:07.861Z,12.46
2022-10-20T03:49:11.431Z,12.41
2022-10-20T04:00:12.864Z,12.37
2022-10-20T04:11:15.213Z,12.39
2022-10-20T04:22:17.010Z,12.48
2022-10-20T04:33:17.885Z,12.26
2022-10-20T04:44:20.584Z,12.18
2022-10-20T04:55:19.758Z,12.28
2022-10-20T05:06:23.631Z,12.18
2022-10-20T05:17:25.091Z,12.24
2022-10-20T05:28:27.261Z,12.37
2022-10-20T05:39:30.026Z,12.44
2022-10-20T05:50:08.425Z,12.44
2022-10-20T06:01:05.393Z,12.49
2022-10-20T06:11:44.496Z,12.55
2022-10-20T06:22:41.950Z,12.61
2022-10-20T06:33:44.930Z,12.70
2022-10-20T06:44:45.742Z,12.67
2022-10-20T06:55:43.987Z,12.89
2022-10-20T07:06:31.151Z,12.99
2022-10-20T07:17:15.367Z,12.99
2022-10-20T07:27:55.798Z,13.14
2022-10-20T07:38:51.957Z,13.33
2022-10-20T07:49:44.646Z,13.52
2022-10-20T08:00:30.827Z,13.66
2022-10-20T08:11:22.696Z,13.74
2022-10-20T08:22:10.405Z,13.59
2022-10-20T08:33:02.405Z,14.01
2022-10-20T08:44:02.471Z,13.89
2022-10-20T08:55:02.971Z,14.36
2022-10-20T09:06:00.796Z,14.32
2022-10-20T09:17:01.014Z,14.74
2022-10-20T09:28:01.379Z,14.91
2022-10-20T09:39:00.934Z,14.71
2022-10-20T09:50:01.315Z,15.34
2022-10-20T10:00:53.970Z,15.46
2022-10-20T10:11:30.266Z,15.66
2022-10-20T10:22:25.131Z,15.83
2022-10-20T10:33:23.252Z,15.33
2022-10-20T10:44:21.919Z,15.41
2022-10-20T10:55:43.611Z,15.53
2022-10-20T11:06:24.115Z,15.63
2022-10-20T11:17:24.770Z,16.03
2022-10-20T11:28:22.699Z,16.15
2022-10-20T11:39:20.380Z,16.14
2022-10-20T11:50:16.764Z,15.63
2022-10-20T12:01:12.583Z,15.53
2022-10-20T12:11:58.090Z,15.70
2022-10-20T12:22:54.174Z,15.26
2022-10-20T12:33:50.524Z,15.13
2022-10-20T12:44:43.640Z,15.06
2022-10-20T12:55:42.416Z,15.24
2022-10-20T13:06:37.472Z,15.21
2022-10-20T13:17:37.757Z,15.86
2022-10-20T13:28:36.288Z,16.01
2022-10-20T13:39:36.750Z,18.35
2022-10-20T13:50:32.357Z,17.73
2022-10-20T14:01:19.860Z,16.06
2022-10-20T14:12:11.520Z,15.46
2022-10-20T14:22:50.658Z,15.51
2022-10-20T14:33:37.559Z,15.23
2022-10-20T14:44:26.878Z,15.06
2022-10-20T14:54:55.000Z,15.08
2022-10-20T15:05:52.403Z,14.83
2022-10-20T15:16:46.594Z,14.67
2022-10-20T15:27:21.109Z,14.46
2022-10-20T15:38:19.494Z,14.29
2022-10-20T15:49:15.848Z,13.96
2022-10-20T16:00:11.184Z,13.91
2022-10-20T16:11:10.484Z,13.80
2022-10-20T16:22:11.396Z,13.86
2022-10-20T16:33:07.910Z,13.63
2022-10-20T16:44:06.027Z,13.63
2022-10-20T16:55:01.793Z,13.53
2022-10-20T17:06:00.108Z,13.70
2022-10-20T17:16:57.977Z,13.70
2022-10-20T17:27:51.520Z,13.68
2022-10-20T17:38:45.939Z,13.61
2022-10-20T17:49:32.718Z,13.58
2022-10-20T18:00:50.974Z,13.62
2022-10-20T18:11:20.875Z,13.47
2022-10-20T18:22:12.092Z,13.40
2022-10-20T18:33:06.982Z,13.50
2022-10-20T18:43:45.682Z,13.50
2022-10-20T18:54:36.164Z,13.29
2022-10-20T19:05:25.730Z,13.37
2022-10-20T19:16:26.438Z,13.36
2022-10-20T19:27:26.027Z,13.37
2022-10-20T19:38:13.838Z,13.43
2022-10-20T19:49:01.514Z,13.25
2022-10-20T20:00:02.485Z,13.41
2022-10-20T20:10:57.973Z,13.38
2022-10-20T20:21:55.133Z,13.19
2022-10-20T20:32:54.340Z,13.28
2022-10-20T20:43:54.081Z,13.15
2022-10-20T20:54:52.223Z,13.21
2022-10-20T21:05:48.791Z,13.17
2022-10-20T21:16:47.434Z,13.14
2022-10-20T21:27:47.534Z,13.15
2022-10-20T21:38:49.102Z,13.25
2022-10-20T21:49:49.019Z,13.17
2022-10-20T22:00:45.269Z,13.22
2022-10-20T22:11:42.742Z,13.04
2022-10-20T22:22:19.511Z,13.00
2022-10-20T22:33:20.789Z,13.07
2022-10-20T22:44:22.773Z,12.89
2022-10-20T22:55:00.240Z,12.97
2022-10-20T23:05:56.477Z,12.70
2022-10-20T23:16:33.416Z,12.46
2022-10-20T23:27:30.814Z,11.98
2022-10-20T23:38:31.590Z,11.94
2022-10-20T23:49:33.963Z,11.81
